This is the latest recevied weather packets stored in our database for station/object KB3VSP. If no packets are shown the sender has not sent any weather packets the latest 1 day(s).
| Time | Temp. | Humidity | Pressure | Rain* | Wind** | Luminosity | Snow |
|---|---|---|---|---|---|---|---|
| 1778017997 | 21.67° C | 58% | 1008.2 hPa | 0 mm | 0.89 m/s, 294° | 46 W/m² | - |
| 1778017694 | 21.67° C | 58% | 1008.3 hPa | 0 mm | 1.34 m/s, 302° | 64 W/m² | - |
| 1778017392 | 21.67° C | 58% | 1008.4 hPa | 0 mm | 0.45 m/s, 9° | 72 W/m² | - |
| 1778017088 | 21.67° C | 57% | 1008.2 hPa | 0 mm | 0.89 m/s, 191° | 81 W/m² | - |
| 1778016786 | 21.67° C | 56% | 1008.1 hPa | 0 mm | 1.34 m/s, 231° | 71 W/m² | - |
| 1778016482 | 21.67° C | 57% | 1008.2 hPa | 0 mm | 1.34 m/s, 294° | 85 W/m² | - |
| 1778016179 | 21.67° C | 58% | 1008 hPa | 0 mm | 0.89 m/s, 82° | 99 W/m² | - |
| 1778015875 | 21.67° C | 58% | 1008 hPa | 0 mm | 0.45 m/s, 14° | 108 W/m² | - |
| 1778015573 | 21.67° C | 59% | 1008.3 hPa | 0 mm | 1.34 m/s, 191° | 94 W/m² | - |
| 1778015269 | 21.67° C | 59% | 1008.1 hPa | 0 mm | 0.89 m/s, 107° | 81 W/m² | - |
| 1778014966 | 21.67° C | 59% | 1008.1 hPa | 0 mm | 1.34 m/s, 170° | 73 W/m² | - |
| 1778014663 | 21.67° C | 59% | 1008.1 hPa | 0 mm | 0.45 m/s, 35° | 62 W/m² | - |
| 1778014362 | 21.67° C | 59% | 1007.9 hPa | 0 mm | 0.45 m/s, 317° | 65 W/m² | - |
| 1778014058 | 21.67° C | 59% | 1008.3 hPa | 0 mm | 0.89 m/s, 194° | 98 W/m² | - |
| 1778013756 | 21.11° C | 59% | 1008.1 hPa | 0 mm | 0.45 m/s, 62° | 87 W/m² | - |
| 1778013453 | 21.67° C | 59% | 1008.2 hPa | 0 mm | 0.45 m/s, 82° | 65 W/m² | - |
| 1778013150 | 21.11° C | 59% | 1008.1 hPa | 0 mm | 0.45 m/s, 320° | 105 W/m² | - |
| 1778012845 | 21.11° C | 59% | 1007.9 hPa | 0 mm | 1.34 m/s, 272° | 76 W/m² | - |
| 1778012542 | 21.67° C | 59% | 1008.1 hPa | 0 mm | 0.45 m/s, 338° | 81 W/m² | - |
| 1778012238 | 21.11° C | 58% | 1008.4 hPa | 0 mm | 1.34 m/s, 325° | 116 W/m² | - |
| 1778011936 | 21.11° C | 59% | 1008.2 hPa | 0 mm | 0 m/s | 88 W/m² | - |
| 1778011634 | 21.11° C | 60% | 1008.2 hPa | 0 mm | 0.89 m/s, 311° | 94 W/m² | - |
| 1778011331 | 21.11° C | 59% | 1008.3 hPa | 0 mm | 1.34 m/s, 316° | 82 W/m² | - |
| 1778011027 | 21.11° C | 58% | 1008.4 hPa | 0 mm | 0.45 m/s, 6° | 98 W/m² | - |
| 1778010724 | 21.11° C | 59% | 1008.1 hPa | 0 mm | 1.34 m/s, 299° | 41 W/m² | - |
* Rain latest hour (hover to see other rain measurements)
** Current wind speed in m/s (hover to see current wind gust speed)